createdAt,value
2022-11-16T00:01:40.801Z,100011.19
2022-11-16T00:04:09.810Z,100011.94
2022-11-16T00:06:36.608Z,100013.50
2022-11-16T00:09:22.498Z,100009.03
2022-11-16T00:11:51.670Z,100010.56
2022-11-16T00:14:20.205Z,100010.56
2022-11-16T00:16:47.085Z,100011.03
2022-11-16T00:19:13.926Z,100015.19
2022-11-16T00:21:40.916Z,100009.97
2022-11-16T00:24:07.765Z,100006.28
2022-11-16T00:26:34.614Z,100001.03
2022-11-16T00:29:01.446Z,100004.13
2022-11-16T00:31:28.350Z,100008.59
2022-11-16T00:33:55.276Z,99999.97
2022-11-16T00:36:22.098Z,100002.59
2022-11-16T00:38:56.305Z,100006.72
2022-11-16T00:41:23.343Z,100004.91
2022-11-16T00:43:50.179Z,100009.34
2022-11-16T00:46:16.991Z,99997.84
2022-11-16T00:48:43.795Z,99984.78
2022-11-16T00:51:10.850Z,99998.59
2022-11-16T00:53:37.818Z,99988.59
2022-11-16T00:56:05.231Z,99987.84
2022-11-16T00:58:32.298Z,99983.38
2022-11-16T01:01:08.124Z,99997.66
2022-11-16T01:03:36.206Z,99985.06
2022-11-16T01:06:05.811Z,99978.78
2022-11-16T01:08:33.951Z,99985.06
2022-11-16T01:11:20.980Z,99988.47
2022-11-16T01:13:48.284Z,99982.91
2022-11-16T01:16:19.903Z,99984.47
2022-11-16T01:18:52.176Z,99977.69
2022-11-16T01:21:19.792Z,99968.78
2022-11-16T01:23:46.686Z,99973.25
2022-11-16T01:26:13.787Z,99974.00
2022-11-16T01:28:40.732Z,99971.09
2022-11-16T01:31:09.342Z,99965.88
2022-11-16T01:33:36.656Z,99968.66
2022-11-16T01:36:08.310Z,99966.34
2022-11-16T01:38:35.599Z,99966.03
2022-11-16T01:41:02.947Z,99955.44
2022-11-16T01:43:29.727Z,99965.25
2022-11-16T01:45:56.507Z,99958.50
2022-11-16T01:48:27.957Z,99961.56
2022-11-16T01:50:57.763Z,99969.13
2022-11-16T01:53:25.123Z,99963.72
2022-11-16T01:55:53.052Z,99967.88
2022-11-16T01:58:23.382Z,99967.56
2022-11-16T02:00:50.711Z,99957.09
2022-11-16T02:03:19.343Z,99957.09
2022-11-16T02:05:54.792Z,99951.88
2022-11-16T02:09:29.954Z,99960.81
2022-11-16T02:12:02.049Z,99945.41
2022-11-16T02:14:47.547Z,99945.28
2022-11-16T02:17:32.847Z,99948.97
2022-11-16T02:20:18.251Z,99937.44
2022-11-16T02:22:57.202Z,99942.97
2022-11-16T02:25:52.651Z,99943.25
2022-11-16T02:28:52.603Z,99931.28
2022-11-16T02:31:29.969Z,99935.44
2022-11-16T02:33:58.057Z,99935.28
2022-11-16T02:36:25.872Z,99938.66
2022-11-16T02:39:02.863Z,99932.34
2022-11-16T02:41:34.028Z,99938.66
2022-11-16T02:44:06.832Z,99937.13
2022-11-16T02:46:38.457Z,99942.34
2022-11-16T02:49:10.711Z,99930.38
2022-11-16T02:51:40.097Z,99934.03
2022-11-16T02:54:19.629Z,99932.19
2022-11-16T02:57:04.639Z,99936.06
2022-11-16T02:59:38.359Z,99926.66
2022-11-16T03:02:38.370Z,99935.28
2022-11-16T03:05:13.370Z,99924.66
2022-11-16T03:07:47.141Z,99939.25
2022-11-16T03:10:36.004Z,99933.28
2022-11-16T03:13:03.866Z,99940.06
2022-11-16T03:15:30.708Z,99929.59
2022-11-16T03:18:00.386Z,99937.91
2022-11-16T03:20:30.049Z,99940.81
2022-11-16T03:23:04.056Z,99941.56
2022-11-16T03:25:38.969Z,99948.66
2022-11-16T03:28:27.638Z,99946.34
2022-11-16T03:31:15.175Z,99938.03
2022-11-16T03:33:48.287Z,99938.03
2022-11-16T03:36:21.670Z,99934.97
2022-11-16T03:38:51.134Z,99940.81
2022-11-16T03:41:20.690Z,99937.75
2022-11-16T03:43:49.496Z,99944.03
2022-11-16T03:46:18.043Z,99945.13
2022-11-16T03:48:44.808Z,99947.25
2022-11-16T03:51:12.454Z,99958.50
2022-11-16T03:53:39.535Z,99950.97
2022-11-16T03:56:06.585Z,99947.88
2022-11-16T03:58:33.787Z,99942.66
2022-11-16T04:01:01.155Z,99947.88
2022-11-16T04:03:28.038Z,99948.03
2022-11-16T04:06:24.299Z,99965.25
2022-11-16T04:09:09.935Z,99964.34
2022-11-16T04:11:56.009Z,99963.88
2022-11-16T04:14:44.016Z,99966.78
2022-11-16T04:17:34.186Z,99968.16
2022-11-16T04:20:19.812Z,99966.47
2022-11-16T04:23:20.941Z,99961.09
2022-11-16T04:25:50.471Z,99973.69
2022-11-16T04:28:22.733Z,99969.06
2022-11-16T04:31:11.157Z,99968.91
2022-11-16T04:33:57.133Z,99971.84
2022-11-16T04:36:42.709Z,99974.75
2022-11-16T04:39:09.554Z,99980.88
2022-11-16T04:41:55.831Z,99985.66
2022-11-16T04:44:27.287Z,99979.47
2022-11-16T04:47:08.501Z,99978.22
2022-11-16T04:49:35.327Z,99978.53
2022-11-16T04:52:02.111Z,99982.78
2022-11-16T04:54:29.145Z,99982.34
2022-11-16T04:56:55.938Z,99979.25
2022-11-16T04:59:22.803Z,99982.50
2022-11-16T05:02:07.952Z,99989.09
2022-11-16T05:04:42.893Z,99989.38
2022-11-16T05:07:12.461Z,99984.28
2022-11-16T05:09:43.066Z,99990.31
2022-11-16T05:12:18.851Z,99989.38
2022-11-16T05:14:46.274Z,99988.09
2022-11-16T05:17:13.919Z,99994.53
2022-11-16T05:19:59.009Z,100002.34
2022-11-16T05:22:25.812Z,100008.19
2022-11-16T05:24:52.991Z,100000.66
2022-11-16T05:27:21.736Z,100006.94
2022-11-16T05:29:51.811Z,99992.19
2022-11-16T05:32:20.508Z,100007.06
2022-11-16T05:34:47.606Z,100002.44
2022-11-16T05:37:15.438Z,100008.28
2022-11-16T05:39:42.642Z,100008.09
2022-11-16T05:42:09.814Z,100009.16
2022-11-16T05:44:36.639Z,100010.53
2022-11-16T05:47:03.492Z,100014.50
2022-11-16T05:49:30.465Z,100015.09
2022-11-16T05:51:57.641Z,100022.44
2022-11-16T05:54:26.373Z,100028.28
2022-11-16T05:56:55.189Z,100021.50
2022-11-16T05:59:23.632Z,100022.59
2022-11-16T06:01:50.960Z,100026.72
2022-11-16T06:04:24.641Z,100025.19
2022-11-16T06:06:52.243Z,100024.25
2022-11-16T06:09:19.478Z,100021.94
2022-11-16T06:11:46.243Z,100021.00
2022-11-16T06:14:13.135Z,100020.22
2022-11-16T06:16:39.909Z,100020.81
2022-11-16T06:19:06.778Z,100017.72
2022-11-16T06:21:33.909Z,100023.56
2022-11-16T06:24:02.811Z,100023.56
2022-11-16T06:26:29.686Z,100023.56
2022-11-16T06:28:56.531Z,100021.22
2022-11-16T06:31:23.450Z,100023.06
2022-11-16T06:33:50.270Z,100027.03
2022-11-16T06:36:17.214Z,100028.88
2022-11-16T06:38:43.946Z,100029.94
2022-11-16T06:41:10.763Z,100025.31
2022-11-16T06:43:37.608Z,100027.75
2022-11-16T06:46:04.570Z,100032.00
2022-11-16T06:48:31.891Z,100040.72
2022-11-16T06:50:59.099Z,100036.56
2022-11-16T06:53:29.237Z,100036.38
2022-11-16T06:56:01.656Z,100049.22
2022-11-16T06:58:30.728Z,100041.22
2022-11-16T07:00:58.882Z,100048.38
2022-11-16T07:03:25.650Z,100060.44
2022-11-16T07:05:52.516Z,100049.84
2022-11-16T07:08:19.562Z,100052.56
2022-11-16T07:10:46.566Z,100058.66
2022-11-16T07:13:13.405Z,100059.97
2022-11-16T07:15:40.364Z,100055.09
2022-11-16T07:18:08.349Z,100058.25
2022-11-16T07:20:35.226Z,100067.72
2022-11-16T07:23:03.709Z,100062.31
2022-11-16T07:25:32.613Z,100075.16
2022-11-16T07:27:59.573Z,100073.91
2022-11-16T07:30:27.214Z,100079.38
2022-11-16T07:33:00.591Z,100078.91
2022-11-16T07:35:27.448Z,100083.63
2022-11-16T07:37:54.334Z,100089.63
2022-11-16T07:40:21.403Z,100088.34
2022-11-16T07:42:48.546Z,100090.97
2022-11-16T07:45:15.664Z,100094.16
2022-11-16T07:47:42.536Z,100099.38
2022-11-16T07:50:11.108Z,100105.34
2022-11-16T07:52:38.353Z,100109.50
2022-11-16T07:55:06.132Z,100112.88
2022-11-16T07:57:33.056Z,100110.53
2022-11-16T08:00:00.103Z,100113.63
2022-11-16T08:02:26.943Z,100122.81
2022-11-16T08:04:54.229Z,100121.72
2022-11-16T08:07:21.205Z,100125.88
2022-11-16T08:09:48.610Z,100129.06
2022-11-16T08:12:16.101Z,100130.63
2022-11-16T08:14:43.041Z,100128.78
2022-11-16T08:17:09.859Z,100135.81
2022-11-16T08:19:36.858Z,100143.34
2022-11-16T08:22:03.918Z,100138.13
2022-11-16T08:24:31.229Z,100143.34
2022-11-16T08:26:58.984Z,100145.94
2022-11-16T08:29:26.634Z,100150.09
2022-11-16T08:31:53.598Z,100144.13
2022-11-16T08:34:20.720Z,100143.34
2022-11-16T08:36:47.870Z,100152.41
2022-11-16T08:39:14.839Z,100146.13
2022-11-16T08:41:42.468Z,100144.00
2022-11-16T08:44:09.419Z,100148.94
2022-11-16T08:46:36.405Z,100147.56
2022-11-16T08:49:03.323Z,100157.16
2022-11-16T08:51:30.362Z,100155.72
2022-11-16T08:53:58.925Z,100158.00
2022-11-16T08:56:30.455Z,100153.59
2022-11-16T08:58:59.226Z,100153.59
2022-11-16T09:01:29.123Z,100152.50
2022-11-16T09:03:56.812Z,100151.94
2022-11-16T09:06:25.792Z,100153.28
2022-11-16T09:08:53.075Z,100161.50
2022-11-16T09:11:22.316Z,100161.38
2022-11-16T09:13:51.943Z,100165.94
2022-11-16T09:16:21.155Z,100158.88
2022-11-16T09:18:51.640Z,100156.16
2022-11-16T09:21:29.444Z,100162.34
2022-11-16T09:23:57.629Z,100159.75
2022-11-16T09:26:25.616Z,100162.53
2022-11-16T09:28:58.411Z,100170.56
2022-11-16T09:31:31.275Z,100175.75
2022-11-16T09:33:59.102Z,100182.91
2022-11-16T09:36:27.938Z,100169.78
2022-11-16T09:39:23.848Z,100175.94
2022-11-16T09:41:47.809Z,100180.94
2022-11-16T09:44:59.768Z,100184.22
2022-11-16T09:47:50.701Z,100177.03
2022-11-16T09:50:43.683Z,100176.56
2022-11-16T09:53:25.957Z,100180.72
2022-11-16T09:56:04.556Z,100176.88
2022-11-16T09:58:56.254Z,100185.47
2022-11-16T10:01:26.608Z,100183.63
2022-11-16T10:04:02.980Z,100183.34
2022-11-16T10:06:41.907Z,100181.31
2022-11-16T10:09:12.715Z,100179.97
2022-11-16T10:11:45.504Z,100177.84
2022-11-16T10:14:25.001Z,100179.97
2022-11-16T10:17:02.098Z,100173.28
2022-11-16T10:19:50.462Z,100174.84
2022-11-16T10:22:42.003Z,100176.22
2022-11-16T10:25:24.729Z,100176.22
2022-11-16T10:28:20.406Z,100174.38
2022-11-16T10:31:18.226Z,100175.13
2022-11-16T10:33:49.448Z,100183.44
2022-11-16T10:36:16.857Z,100176.69
2022-11-16T10:38:44.605Z,100173.28
2022-11-16T10:41:31.858Z,100178.41
2022-11-16T10:43:59.883Z,100178.59
2022-11-16T10:46:40.497Z,100178.00
2022-11-16T10:49:16.706Z,100176.81
2022-11-16T10:51:43.646Z,100181.47
2022-11-16T10:54:14.537Z,100179.53
2022-11-16T10:56:45.639Z,100176.63
2022-11-16T10:59:14.299Z,100175.78
2022-11-16T11:01:43.877Z,100187.06
2022-11-16T11:04:22.242Z,100180.47
2022-11-16T11:06:57.620Z,100176.19
2022-11-16T11:09:33.100Z,100176.25
2022-11-16T11:12:34.773Z,100181.38
2022-11-16T11:15:07.477Z,100178.94
2022-11-16T11:17:36.199Z,100185.75
2022-11-16T11:20:14.965Z,100177.81
2022-11-16T11:22:58.346Z,100178.09
2022-11-16T11:25:32.604Z,100180.41
2022-11-16T11:28:17.175Z,100170.72
2022-11-16T11:31:09.548Z,100173.06
2022-11-16T11:33:39.986Z,100160.28
2022-11-16T11:36:18.936Z,100163.78
2022-11-16T11:39:07.517Z,100157.53
2022-11-16T11:41:38.270Z,100159.06
2022-11-16T11:44:15.605Z,100141.25
2022-11-16T11:49:50.274Z,100135.63
2022-11-16T11:52:25.241Z,100138.25
2022-11-16T11:54:54.652Z,100138.72
2022-11-16T11:57:24.065Z,100137.47
2022-11-16T11:59:53.847Z,100138.09
2022-11-16T12:02:36.256Z,100139.75
2022-11-16T12:05:57.812Z,100141.72
2022-11-16T12:08:43.167Z,100134.34
2022-11-16T12:11:21.944Z,100142.38
2022-11-16T12:14:01.765Z,100140.88
2022-11-16T12:16:50.203Z,100138.91
2022-11-16T12:19:25.911Z,100140.59
2022-11-16T12:22:01.594Z,100146.28
2022-11-16T12:24:52.855Z,100138.91
2022-11-16T12:27:28.540Z,100143.66
2022-11-16T12:29:58.382Z,100139.66
2022-11-16T12:32:53.449Z,100143.69
2022-11-16T12:35:52.126Z,100144.78
2022-11-16T12:38:39.537Z,100135.38
2022-11-16T12:41:31.726Z,100140.44
2022-11-16T12:44:05.124Z,100134.63
2022-11-16T12:47:09.224Z,100134.06
2022-11-16T12:50:12.526Z,100123.38
2022-11-16T12:53:21.079Z,100116.59
2022-11-16T12:56:02.799Z,100108.59
2022-11-16T12:58:38.884Z,100112.59
2022-11-16T13:01:35.879Z,100108.16
2022-11-16T13:04:11.379Z,100095.53
2022-11-16T13:07:13.859Z,100107.34
2022-11-16T13:09:48.273Z,100106.72
2022-11-16T13:12:23.645Z,100103.97
2022-11-16T13:14:53.884Z,100101.66
2022-11-16T13:17:37.283Z,100095.53
2022-11-16T13:20:28.067Z,100102.56
2022-11-16T13:22:59.162Z,100097.81
2022-11-16T13:25:40.485Z,100089.78
2022-11-16T13:28:35.588Z,100089.78
2022-11-16T13:31:11.968Z,100087.94
2022-11-16T13:33:52.777Z,100085.63
2022-11-16T13:36:40.715Z,100085.91
2022-11-16T13:39:08.733Z,100094.81
2022-11-16T13:41:38.565Z,100091.41
2022-11-16T13:44:32.036Z,100097.56
2022-11-16T13:47:19.094Z,100094.13
2022-11-16T13:49:57.813Z,100090.09
2022-11-16T13:53:28.401Z,100091.28
2022-11-16T13:55:54.601Z,100083.75
2022-11-16T13:58:23.741Z,100074.97
2022-11-16T14:01:08.310Z,100085.09
2022-11-16T14:03:59.541Z,100074.66
2022-11-16T14:06:29.387Z,100071.56
2022-11-16T14:08:57.746Z,100060.97
2022-11-16T14:11:30.554Z,100075.25
2022-11-16T14:14:01.143Z,100065.16
2022-11-16T14:16:29.256Z,100059.22
2022-11-16T14:18:59.419Z,100058.56
2022-11-16T14:21:26.967Z,100052.56
2022-11-16T14:24:15.018Z,100048.53
2022-11-16T14:26:48.067Z,100048.22
2022-11-16T14:29:51.971Z,100059.69
2022-11-16T14:32:26.565Z,100045.22
2022-11-16T14:34:57.164Z,100050.41
2022-11-16T14:37:28.452Z,100046.06
2022-11-16T14:40:05.745Z,100060.78
2022-11-16T14:42:48.364Z,100048.81
2022-11-16T14:45:31.425Z,100042.22
2022-11-16T14:48:06.843Z,100038.72
2022-11-16T14:50:40.644Z,100037.38
2022-11-16T14:53:12.547Z,100023.06
2022-11-16T14:55:44.322Z,100027.19
2022-11-16T14:58:13.969Z,100027.31
2022-11-16T15:00:40.911Z,100021.72
2022-11-16T15:03:12.342Z,100017.72
2022-11-16T15:05:39.756Z,100016.75
2022-11-16T15:08:28.614Z,100015.34
2022-11-16T15:10:56.977Z,100009.19
2022-11-16T15:13:25.488Z,100007.78
2022-11-16T15:16:09.952Z,100016.00
2022-11-16T15:18:36.921Z,100014.31
2022-11-16T15:21:03.943Z,100002.13
2022-11-16T15:23:31.087Z,99999.97
2022-11-16T15:26:00.534Z,99993.03
2022-11-16T15:28:30.595Z,99991.28
2022-11-16T15:31:00.962Z,99984.66
2022-11-16T15:33:36.017Z,99986.63
2022-11-16T15:36:31.558Z,99986.44
2022-11-16T15:39:01.142Z,99987.03
2022-11-16T15:41:29.514Z,99979.31
2022-11-16T15:44:14.138Z,99986.19
2022-11-16T15:46:43.329Z,99970.66
2022-11-16T15:49:25.261Z,99963.44
2022-11-16T15:51:52.442Z,99957.75
2022-11-16T15:54:56.312Z,99950.53
2022-11-16T15:57:24.975Z,99940.19
2022-11-16T15:59:57.481Z,99944.16
2022-11-16T16:02:30.258Z,99949.66
2022-11-16T16:04:57.381Z,99941.38
2022-11-16T16:07:41.236Z,99936.78
2022-11-16T16:10:20.153Z,99922.66
2022-11-16T16:12:59.251Z,99906.88
2022-11-16T16:15:30.515Z,99927.25
2022-11-16T16:17:59.012Z,99934.38
2022-11-16T16:20:29.779Z,99933.41
2022-11-16T16:23:09.329Z,99941.78
2022-11-16T16:25:37.189Z,99947.09
2022-11-16T16:28:04.585Z,99936.31
2022-11-16T16:30:33.258Z,99931.38
2022-11-16T16:33:00.765Z,99934.09
2022-11-16T16:35:28.034Z,99925.53
2022-11-16T16:38:01.008Z,99919.72
2022-11-16T16:40:29.087Z,99908.75
2022-11-16T16:42:56.664Z,99912.88
2022-11-16T16:45:38.911Z,99911.22
2022-11-16T16:48:06.451Z,99919.03
2022-11-16T16:50:33.486Z,99909.22
2022-11-16T16:53:00.638Z,99903.22
2022-11-16T16:55:28.939Z,99910.28
2022-11-16T16:57:58.376Z,99909.78
2022-11-16T17:00:26.054Z,99906.72
2022-11-16T17:02:53.042Z,99893.22
2022-11-16T17:05:20.328Z,99885.69
2022-11-16T17:07:47.196Z,99892.75
2022-11-16T17:10:13.971Z,99880.97
2022-11-16T17:12:40.789Z,99885.41
2022-11-16T17:15:08.430Z,99885.69
2022-11-16T17:17:37.392Z,99886.97
2022-11-16T17:20:06.302Z,99882.53
2022-11-16T17:22:34.444Z,99879.16
2022-11-16T17:25:01.323Z,99881.28
2022-11-16T17:27:28.032Z,99884.47
2022-11-16T17:29:55.069Z,99879.53
2022-11-16T17:32:24.709Z,99883.69
2022-11-16T17:34:51.654Z,99881.88
2022-11-16T17:37:18.619Z,99886.59
2022-11-16T17:39:45.588Z,99888.22
2022-11-16T17:42:12.575Z,99883.59
2022-11-16T17:44:39.385Z,99882.06
2022-11-16T17:47:07.602Z,99883.72
2022-11-16T17:49:34.517Z,99871.59
2022-11-16T17:52:01.977Z,99866.66
2022-11-16T17:54:28.771Z,99855.03
2022-11-16T17:56:55.827Z,99863.88
2022-11-16T17:59:26.518Z,99860.03
2022-11-16T18:01:57.840Z,99861.06
2022-11-16T18:04:24.827Z,99854.53
2022-11-16T18:06:51.712Z,99860.78
2022-11-16T18:09:19.015Z,99858.38
2022-11-16T18:11:46.299Z,99855.19
2022-11-16T18:14:13.331Z,99857.22
2022-11-16T18:16:44.541Z,99848.06
2022-11-16T18:19:17.097Z,99854.97
2022-11-16T18:21:44.705Z,99852.38
2022-11-16T18:24:12.343Z,99849.22
2022-11-16T18:26:40.739Z,99851.22
2022-11-16T18:29:12.329Z,99853.72
2022-11-16T18:31:39.402Z,99856.03
2022-11-16T18:34:06.313Z,99850.81
2022-11-16T18:36:33.354Z,99850.53
2022-11-16T18:39:00.593Z,99848.69
2022-11-16T18:41:29.996Z,99849.19
2022-11-16T18:43:59.405Z,99854.09
2022-11-16T18:46:29.618Z,99839.53
2022-11-16T18:48:57.207Z,99834.63
2022-11-16T18:51:26.428Z,99832.31
2022-11-16T18:53:53.977Z,99828.66
2022-11-16T18:56:21.625Z,99828.06
2022-11-16T18:58:51.508Z,99822.88
2022-11-16T19:01:22.148Z,99821.03
2022-11-16T19:03:49.451Z,99816.28
2022-11-16T19:06:18.105Z,99813.22
2022-11-16T19:08:50.490Z,99812.47
2022-11-16T19:11:23.553Z,99808.78
2022-11-16T19:13:54.233Z,99813.56
2022-11-16T19:16:21.880Z,99789.09
2022-11-16T19:18:48.854Z,99797.38
2022-11-16T19:21:18.770Z,99782.34
2022-11-16T19:23:48.309Z,99773.94
2022-11-16T19:26:16.991Z,99764.78
2022-11-16T19:28:48.548Z,99762.63
2022-11-16T19:31:19.290Z,99758.41
2022-11-16T19:33:46.443Z,99746.34
2022-11-16T19:36:15.996Z,99747.88
2022-11-16T19:38:43.616Z,99739.00
2022-11-16T19:41:12.127Z,99736.38
2022-11-16T19:43:39.195Z,99736.38
2022-11-16T19:46:11.320Z,99727.25
2022-11-16T19:48:38.959Z,99719.44
2022-11-16T19:51:06.016Z,99718.34
2022-11-16T19:53:33.319Z,99711.75
2022-11-16T19:56:00.850Z,99707.50
2022-11-16T19:58:28.298Z,99705.97
2022-11-16T20:01:10.369Z,99698.16
2022-11-16T20:03:38.677Z,99702.00
2022-11-16T20:06:11.207Z,99693.41
2022-11-16T20:08:39.630Z,99679.31
2022-11-16T20:11:26.860Z,99674.13
2022-11-16T20:13:55.711Z,99660.63
2022-11-16T20:16:24.656Z,99655.75
2022-11-16T20:18:52.650Z,99655.41
2022-11-16T20:21:34.281Z,99654.38
2022-11-16T20:24:06.457Z,99644.72
2022-11-16T20:26:35.800Z,99651.16
2022-11-16T20:29:03.534Z,99650.09
2022-11-16T20:31:31.844Z,99641.81
2022-11-16T20:34:01.023Z,99650.84
2022-11-16T20:36:29.929Z,99646.91
2022-11-16T20:38:58.430Z,99639.56
2022-11-16T20:41:27.277Z,99642.16
2022-11-16T20:43:57.503Z,99634.81
2022-11-16T20:46:26.930Z,99623.31
2022-11-16T20:48:54.839Z,99623.78
2022-11-16T20:51:21.911Z,99615.66
2022-11-16T20:53:50.264Z,99602.34
2022-11-16T20:56:19.376Z,99602.34
2022-11-16T20:58:47.483Z,99599.75
2022-11-16T21:01:17.426Z,99608.31
2022-11-16T21:03:44.913Z,99603.09
2022-11-16T21:06:13.531Z,99603.88
2022-11-16T21:08:41.523Z,99587.94
2022-11-16T21:11:23.365Z,99588.41
2022-11-16T21:14:08.734Z,99574.91
2022-11-16T21:16:39.137Z,99575.38
2022-11-16T21:19:06.679Z,99554.25
2022-11-16T21:21:33.888Z,99555.00
2022-11-16T21:24:01.323Z,99548.25
2022-11-16T21:26:30.192Z,99549.34
2022-11-16T21:28:58.042Z,99537.81
2022-11-16T21:31:27.280Z,99530.78
2022-11-16T21:33:54.814Z,99524.03
2022-11-16T21:36:24.386Z,99517.78
2022-11-16T21:38:52.370Z,99518.22
2022-11-16T21:41:20.919Z,99513.50
2022-11-16T21:43:47.913Z,99506.72
2022-11-16T21:46:17.226Z,99499.69
2022-11-16T21:48:45.087Z,99488.03
2022-11-16T21:51:15.052Z,99492.19
2022-11-16T21:53:41.991Z,99483.75
2022-11-16T21:56:12.735Z,99475.47
2022-11-16T21:58:40.679Z,99469.19
2022-11-16T22:01:08.693Z,99465.34
2022-11-16T22:03:35.836Z,99457.53
2022-11-16T22:06:26.135Z,99463.53
2022-11-16T22:08:53.115Z,99450.81
2022-11-16T22:11:22.316Z,99448.19
2022-11-16T22:13:50.236Z,99444.97
2022-11-16T22:16:19.188Z,99432.72
2022-11-16T22:18:46.188Z,99427.19
2022-11-16T22:21:13.310Z,99423.53
2022-11-16T22:23:40.697Z,99414.97
2022-11-16T22:26:12.779Z,99413.09
2022-11-16T22:28:39.947Z,99393.03
2022-11-16T22:31:15.908Z,99387.22
2022-11-16T22:33:42.836Z,99383.50
2022-11-16T22:36:10.963Z,99360.41
2022-11-16T22:38:38.165Z,99357.47
2022-11-16T22:41:05.205Z,99355.31
2022-11-16T22:43:32.864Z,99342.94
2022-11-16T22:46:02.560Z,99339.56
2022-11-16T22:48:34.295Z,99339.22
2022-11-16T22:51:30.610Z,99338.78
2022-11-16T22:54:03.291Z,99328.06
2022-11-16T22:56:32.195Z,99317.94
2022-11-16T22:59:01.333Z,99308.31
2022-11-16T23:01:28.474Z,99303.84
2022-11-16T23:03:56.397Z,99291.13
2022-11-16T23:06:23.499Z,99294.78
2022-11-16T23:08:50.817Z,99280.56
2022-11-16T23:11:39.024Z,99266.03
2022-11-16T23:14:26.620Z,99262.31
2022-11-16T23:16:53.520Z,99250.41
2022-11-16T23:19:40.275Z,99255.59
2022-11-16T23:22:30.934Z,99257.41
2022-11-16T23:25:16.479Z,99244.72
2022-11-16T23:27:55.717Z,99241.69
2022-11-16T23:30:23.246Z,99238.63
2022-11-16T23:32:50.489Z,99236.31
2022-11-16T23:35:17.814Z,99225.16
2022-11-16T23:37:51.056Z,99212.44
2022-11-16T23:40:18.278Z,99203.84
2022-11-16T23:43:03.529Z,99200.00
2022-11-16T23:45:30.262Z,99187.78
2022-11-16T23:47:57.013Z,99179.97
2022-11-16T23:50:24.095Z,99164.34
2022-11-16T23:52:53.453Z,99153.13
2022-11-16T23:55:20.469Z,99147.19
2022-11-16T23:57:47.190Z,99121.44
